sensor_id;sensor_type;location;lat;lon;timestamp;P1;durP1;ratioP1;P2;durP2;ratioP2
50102;SDS011;35993;52.604;10.078;2023-01-15T00:01:46;1.00;;;0.90;;
50102;SDS011;35993;52.604;10.078;2023-01-15T00:04:12;2.90;;;1.05;;
50102;SDS011;35993;52.604;10.078;2023-01-15T00:06:39;1.50;;;1.00;;
50102;SDS011;35993;52.604;10.078;2023-01-15T00:09:06;2.83;;;1.10;;
50102;SDS011;35993;52.604;10.078;2023-01-15T00:11:33;1.83;;;1.10;;
50102;SDS011;35993;52.604;10.078;2023-01-15T00:13:59;1.33;;;0.70;;
50102;SDS011;35993;52.604;10.078;2023-01-15T00:16:25;0.90;;;0.60;;
50102;SDS011;35993;52.604;10.078;2023-01-15T00:18:53;1.15;;;0.80;;
50102;SDS011;35993;52.604;10.078;2023-01-15T00:23:50;2.88;;;0.65;;
50102;SDS011;35993;52.604;10.078;2023-01-15T00:26:35;2.55;;;0.80;;
50102;SDS011;35993;52.604;10.078;2023-01-15T00:29:20;3.40;;;1.55;;
50102;SDS011;35993;52.604;10.078;2023-01-15T00:31:55;3.35;;;0.95;;
50102;SDS011;35993;52.604;10.078;2023-01-15T00:34:23;4.53;;;1.52;;
50102;SDS011;35993;52.604;10.078;2023-01-15T00:36:49;1.63;;;0.65;;
50102;SDS011;35993;52.604;10.078;2023-01-15T00:39:15;1.55;;;0.70;;
50102;SDS011;35993;52.604;10.078;2023-01-15T00:41:41;2.38;;;0.70;;
50102;SDS011;35993;52.604;10.078;2023-01-15T00:44:06;2.08;;;0.90;;
50102;SDS011;35993;52.604;10.078;2023-01-15T00:46:32;1.48;;;0.60;;
50102;SDS011;35993;52.604;10.078;2023-01-15T00:48:58;2.58;;;1.13;;
50102;SDS011;35993;52.604;10.078;2023-01-15T00:51:23;4.28;;;1.35;;
50102;SDS011;35993;52.604;10.078;2023-01-15T00:53:49;8.20;;;0.80;;
50102;SDS011;35993;52.604;10.078;2023-01-15T00:56:15;2.80;;;0.80;;
50102;SDS011;35993;52.604;10.078;2023-01-15T00:58:40;1.00;;;0.45;;
50102;SDS011;35993;52.604;10.078;2023-01-15T01:01:06;1.25;;;0.70;;
50102;SDS011;35993;52.604;10.078;2023-01-15T01:03:32;2.03;;;0.70;;
50102;SDS011;35993;52.604;10.078;2023-01-15T01:05:59;2.20;;;0.63;;
50102;SDS011;35993;52.604;10.078;2023-01-15T01:08:26;3.15;;;0.63;;
50102;SDS011;35993;52.604;10.078;2023-01-15T01:11:01;0.80;;;0.50;;
50102;SDS011;35993;52.604;10.078;2023-01-15T01:13:31;1.35;;;0.60;;
50102;SDS011;35993;52.604;10.078;2023-01-15T01:15:58;2.60;;;0.65;;
50102;SDS011;35993;52.604;10.078;2023-01-15T01:18:24;3.05;;;0.50;;
50102;SDS011;35993;52.604;10.078;2023-01-15T01:20:49;2.05;;;0.60;;
50102;SDS011;35993;52.604;10.078;2023-01-15T01:23:15;2.42;;;0.70;;
50102;SDS011;35993;52.604;10.078;2023-01-15T01:25:40;1.38;;;0.57;;
50102;SDS011;35993;52.604;10.078;2023-01-15T01:28:06;2.33;;;0.50;;
50102;SDS011;35993;52.604;10.078;2023-01-15T01:30:32;0.90;;;0.47;;
50102;SDS011;35993;52.604;10.078;2023-01-15T01:32:57;5.13;;;0.80;;
50102;SDS011;35993;52.604;10.078;2023-01-15T01:35:23;3.00;;;1.00;;
50102;SDS011;35993;52.604;10.078;2023-01-15T01:37:49;3.38;;;0.60;;
50102;SDS011;35993;52.604;10.078;2023-01-15T01:40:16;3.33;;;0.60;;
50102;SDS011;35993;52.604;10.078;2023-01-15T01:42:42;4.55;;;0.60;;
50102;SDS011;35993;52.604;10.078;2023-01-15T01:45:22;1.67;;;0.52;;
50102;SDS011;35993;52.604;10.078;2023-01-15T01:47:55;2.85;;;0.52;;
50102;SDS011;35993;52.604;10.078;2023-01-15T01:50:27;1.17;;;0.40;;
50102;SDS011;35993;52.604;10.078;2023-01-15T01:53:02;4.38;;;0.95;;
50102;SDS011;35993;52.604;10.078;2023-01-15T01:55:30;3.40;;;0.50;;
50102;SDS011;35993;52.604;10.078;2023-01-15T01:57:59;0.60;;;0.40;;
50102;SDS011;35993;52.604;10.078;2023-01-15T02:00:26;0.82;;;0.43;;
50102;SDS011;35993;52.604;10.078;2023-01-15T02:02:53;1.13;;;0.50;;
50102;SDS011;35993;52.604;10.078;2023-01-15T02:05:29;1.45;;;0.32;;
50102;SDS011;35993;52.604;10.078;2023-01-15T02:07:57;1.92;;;0.60;;
50102;SDS011;35993;52.604;10.078;2023-01-15T02:10:23;2.45;;;0.50;;
50102;SDS011;35993;52.604;10.078;2023-01-15T02:12:54;1.92;;;0.40;;
50102;SDS011;35993;52.604;10.078;2023-01-15T02:15:32;3.33;;;0.68;;
50102;SDS011;35993;52.604;10.078;2023-01-15T02:20:44;2.13;;;0.73;;
50102;SDS011;35993;52.604;10.078;2023-01-15T02:28:35;1.52;;;0.52;;
50102;SDS011;35993;52.604;10.078;2023-01-15T02:31:08;1.00;;;0.40;;
50102;SDS011;35993;52.604;10.078;2023-01-15T02:33:55;1.10;;;0.50;;
50102;SDS011;35993;52.604;10.078;2023-01-15T02:36:29;2.35;;;0.50;;
50102;SDS011;35993;52.604;10.078;2023-01-15T02:39:01;1.92;;;0.52;;
50102;SDS011;35993;52.604;10.078;2023-01-15T02:41:32;4.20;;;1.13;;
50102;SDS011;35993;52.604;10.078;2023-01-15T02:44:03;0.75;;;0.47;;
50102;SDS011;35993;52.604;10.078;2023-01-15T02:46:32;2.33;;;0.73;;
50102;SDS011;35993;52.604;10.078;2023-01-15T02:49:03;2.75;;;0.60;;
50102;SDS011;35993;52.604;10.078;2023-01-15T02:51:53;2.83;;;0.68;;
50102;SDS011;35993;52.604;10.078;2023-01-15T02:54:38;2.63;;;0.52;;
50102;SDS011;35993;52.604;10.078;2023-01-15T02:57:10;3.92;;;0.50;;
50102;SDS011;35993;52.604;10.078;2023-01-15T02:59:41;0.82;;;0.28;;
50102;SDS011;35993;52.604;10.078;2023-01-15T03:02:21;1.75;;;0.35;;
50102;SDS011;35993;52.604;10.078;2023-01-15T03:04:55;2.17;;;0.35;;
50102;SDS011;35993;52.604;10.078;2023-01-15T03:07:34;1.98;;;0.40;;
50102;SDS011;35993;52.604;10.078;2023-01-15T03:10:05;1.98;;;0.55;;
50102;SDS011;35993;52.604;10.078;2023-01-15T03:12:37;0.98;;;0.40;;
50102;SDS011;35993;52.604;10.078;2023-01-15T03:15:29;2.42;;;0.60;;
50102;SDS011;35993;52.604;10.078;2023-01-15T03:18:28;1.45;;;0.50;;
50102;SDS011;35993;52.604;10.078;2023-01-15T03:21:01;0.13;;;0.13;;
50102;SDS011;35993;52.604;10.078;2023-01-15T03:23:30;1.60;;;0.73;;
50102;SDS011;35993;52.604;10.078;2023-01-15T03:26:04;1.27;;;0.30;;
50102;SDS011;35993;52.604;10.078;2023-01-15T03:28:32;0.45;;;0.40;;
50102;SDS011;35993;52.604;10.078;2023-01-15T03:31:01;2.08;;;0.50;;
50102;SDS011;35993;52.604;10.078;2023-01-15T03:33:28;0.40;;;0.40;;
50102;SDS011;35993;52.604;10.078;2023-01-15T03:36:04;0.35;;;0.30;;
50102;SDS011;35993;52.604;10.078;2023-01-15T03:38:37;1.27;;;0.55;;
50102;SDS011;35993;52.604;10.078;2023-01-15T03:52:30;3.88;;;0.40;;
50102;SDS011;35993;52.604;10.078;2023-01-15T03:55:19;0.40;;;0.20;;
50102;SDS011;35993;52.604;10.078;2023-01-15T03:58:19;1.38;;;0.52;;
50102;SDS011;35993;52.604;10.078;2023-01-15T04:01:14;1.92;;;0.40;;
50102;SDS011;35993;52.604;10.078;2023-01-15T04:03:45;1.48;;;0.50;;
50102;SDS011;35993;52.604;10.078;2023-01-15T04:06:13;0.30;;;0.20;;
50102;SDS011;35993;52.604;10.078;2023-01-15T04:08:39;1.45;;;0.50;;
50102;SDS011;35993;52.604;10.078;2023-01-15T04:11:08;1.20;;;0.40;;
50102;SDS011;35993;52.604;10.078;2023-01-15T04:13:41;1.73;;;0.40;;
50102;SDS011;35993;52.604;10.078;2023-01-15T04:16:26;0.98;;;0.30;;
50102;SDS011;35993;52.604;10.078;2023-01-15T04:18:53;3.60;;;1.25;;
50102;SDS011;35993;52.604;10.078;2023-01-15T04:21:19;1.48;;;0.60;;
50102;SDS011;35993;52.604;10.078;2023-01-15T04:23:45;2.28;;;0.45;;
50102;SDS011;35993;52.604;10.078;2023-01-15T04:26:11;4.18;;;0.70;;
50102;SDS011;35993;52.604;10.078;2023-01-15T04:28:37;3.03;;;0.55;;
50102;SDS011;35993;52.604;10.078;2023-01-15T04:31:03;2.75;;;0.70;;
50102;SDS011;35993;52.604;10.078;2023-01-15T04:33:29;0.98;;;0.40;;
50102;SDS011;35993;52.604;10.078;2023-01-15T04:35:54;3.80;;;0.75;;
50102;SDS011;35993;52.604;10.078;2023-01-15T04:38:23;5.30;;;0.63;;
50102;SDS011;35993;52.604;10.078;2023-01-15T04:40:48;3.13;;;0.80;;
50102;SDS011;35993;52.604;10.078;2023-01-15T04:43:32;1.88;;;0.57;;
50102;SDS011;35993;52.604;10.078;2023-01-15T04:46:19;2.38;;;0.65;;
50102;SDS011;35993;52.604;10.078;2023-01-15T04:48:46;5.35;;;0.82;;
50102;SDS011;35993;52.604;10.078;2023-01-15T04:51:11;2.67;;;0.90;;
50102;SDS011;35993;52.604;10.078;2023-01-15T04:53:37;4.32;;;0.98;;
50102;SDS011;35993;52.604;10.078;2023-01-15T04:56:03;3.20;;;0.85;;
50102;SDS011;35993;52.604;10.078;2023-01-15T04:58:29;2.20;;;0.82;;
50102;SDS011;35993;52.604;10.078;2023-01-15T05:00:56;2.25;;;0.85;;
50102;SDS011;35993;52.604;10.078;2023-01-15T05:03:22;2.05;;;0.60;;
50102;SDS011;35993;52.604;10.078;2023-01-15T05:05:47;1.38;;;0.75;;
50102;SDS011;35993;52.604;10.078;2023-01-15T05:08:14;4.28;;;1.00;;
50102;SDS011;35993;52.604;10.078;2023-01-15T05:10:40;2.53;;;1.10;;
50102;SDS011;35993;52.604;10.078;2023-01-15T05:13:06;3.88;;;1.08;;
50102;SDS011;35993;52.604;10.078;2023-01-15T05:15:31;3.13;;;1.05;;
50102;SDS011;35993;52.604;10.078;2023-01-15T05:17:57;3.58;;;1.00;;
50102;SDS011;35993;52.604;10.078;2023-01-15T05:20:22;3.55;;;0.90;;
50102;SDS011;35993;52.604;10.078;2023-01-15T05:22:48;4.43;;;1.02;;
50102;SDS011;35993;52.604;10.078;2023-01-15T05:25:14;2.08;;;0.90;;
50102;SDS011;35993;52.604;10.078;2023-01-15T05:27:39;5.75;;;1.13;;
50102;SDS011;35993;52.604;10.078;2023-01-15T05:30:07;3.90;;;1.00;;
50102;SDS011;35993;52.604;10.078;2023-01-15T05:32:33;1.40;;;0.90;;
50102;SDS011;35993;52.604;10.078;2023-01-15T05:34:59;2.97;;;1.20;;
50102;SDS011;35993;52.604;10.078;2023-01-15T05:37:24;6.60;;;1.25;;
50102;SDS011;35993;52.604;10.078;2023-01-15T05:39:50;2.75;;;1.00;;
50102;SDS011;35993;52.604;10.078;2023-01-15T05:42:15;2.92;;;0.95;;
50102;SDS011;35993;52.604;10.078;2023-01-15T05:44:41;3.05;;;1.10;;
50102;SDS011;35993;52.604;10.078;2023-01-15T05:47:08;2.78;;;1.25;;
50102;SDS011;35993;52.604;10.078;2023-01-15T05:49:34;3.08;;;0.75;;
50102;SDS011;35993;52.604;10.078;2023-01-15T05:52:00;2.13;;;1.05;;
50102;SDS011;35993;52.604;10.078;2023-01-15T05:54:28;2.00;;;0.93;;
50102;SDS011;35993;52.604;10.078;2023-01-15T05:56:55;2.13;;;1.05;;
50102;SDS011;35993;52.604;10.078;2023-01-15T05:59:22;3.20;;;1.08;;
50102;SDS011;35993;52.604;10.078;2023-01-15T06:01:49;3.65;;;1.20;;
50102;SDS011;35993;52.604;10.078;2023-01-15T06:04:15;6.40;;;1.40;;
50102;SDS011;35993;52.604;10.078;2023-01-15T06:06:46;5.47;;;1.30;;
50102;SDS011;35993;52.604;10.078;2023-01-15T06:09:12;4.68;;;1.13;;
50102;SDS011;35993;52.604;10.078;2023-01-15T06:11:38;7.50;;;1.20;;
50102;SDS011;35993;52.604;10.078;2023-01-15T06:14:05;3.83;;;1.10;;
50102;SDS011;35993;52.604;10.078;2023-01-15T06:16:31;4.30;;;1.00;;
50102;SDS011;35993;52.604;10.078;2023-01-15T06:19:00;5.55;;;1.33;;
50102;SDS011;35993;52.604;10.078;2023-01-15T06:21:28;5.37;;;1.10;;
50102;SDS011;35993;52.604;10.078;2023-01-15T06:23:55;2.28;;;1.25;;
50102;SDS011;35993;52.604;10.078;2023-01-15T06:26:20;3.08;;;1.10;;
50102;SDS011;35993;52.604;10.078;2023-01-15T06:28:47;7.03;;;1.58;;
50102;SDS011;35993;52.604;10.078;2023-01-15T06:31:14;2.85;;;1.10;;
50102;SDS011;35993;52.604;10.078;2023-01-15T06:33:41;4.68;;;1.10;;
50102;SDS011;35993;52.604;10.078;2023-01-15T06:36:13;6.55;;;2.05;;
50102;SDS011;35993;52.604;10.078;2023-01-15T06:38:41;5.32;;;1.40;;
50102;SDS011;35993;52.604;10.078;2023-01-15T06:41:11;3.80;;;1.48;;
50102;SDS011;35993;52.604;10.078;2023-01-15T06:44:02;3.70;;;1.55;;
50102;SDS011;35993;52.604;10.078;2023-01-15T06:46:48;4.28;;;2.40;;
50102;SDS011;35993;52.604;10.078;2023-01-15T06:49:33;4.47;;;2.25;;
50102;SDS011;35993;52.604;10.078;2023-01-15T06:52:00;6.55;;;2.10;;
50102;SDS011;35993;52.604;10.078;2023-01-15T06:54:26;5.05;;;1.35;;
50102;SDS011;35993;52.604;10.078;2023-01-15T06:56:52;5.82;;;2.00;;
50102;SDS011;35993;52.604;10.078;2023-01-15T06:59:18;7.43;;;1.70;;
50102;SDS011;35993;52.604;10.078;2023-01-15T07:01:44;9.63;;;2.40;;
50102;SDS011;35993;52.604;10.078;2023-01-15T07:04:10;5.00;;;1.90;;
50102;SDS011;35993;52.604;10.078;2023-01-15T07:06:36;5.45;;;1.70;;
50102;SDS011;35993;52.604;10.078;2023-01-15T07:09:01;8.80;;;1.95;;
50102;SDS011;35993;52.604;10.078;2023-01-15T07:11:27;3.75;;;1.70;;
50102;SDS011;35993;52.604;10.078;2023-01-15T07:13:53;5.85;;;1.67;;
50102;SDS011;35993;52.604;10.078;2023-01-15T07:16:33;6.55;;;1.70;;
50102;SDS011;35993;52.604;10.078;2023-01-15T07:18:59;4.15;;;1.50;;
50102;SDS011;35993;52.604;10.078;2023-01-15T07:21:26;4.75;;;1.60;;
50102;SDS011;35993;52.604;10.078;2023-01-15T07:23:52;5.63;;;1.45;;
50102;SDS011;35993;52.604;10.078;2023-01-15T07:26:18;5.88;;;1.85;;
50102;SDS011;35993;52.604;10.078;2023-01-15T07:28:44;5.05;;;1.60;;
50102;SDS011;35993;52.604;10.078;2023-01-15T07:31:09;6.32;;;1.58;;
50102;SDS011;35993;52.604;10.078;2023-01-15T07:33:35;7.97;;;1.90;;
50102;SDS011;35993;52.604;10.078;2023-01-15T07:36:01;4.72;;;1.95;;
50102;SDS011;35993;52.604;10.078;2023-01-15T07:38:27;5.88;;;1.70;;
50102;SDS011;35993;52.604;10.078;2023-01-15T07:40:56;5.70;;;1.50;;
50102;SDS011;35993;52.604;10.078;2023-01-15T07:43:40;4.25;;;1.40;;
50102;SDS011;35993;52.604;10.078;2023-01-15T07:46:24;4.95;;;1.40;;
50102;SDS011;35993;52.604;10.078;2023-01-15T07:49:09;6.30;;;1.85;;
50102;SDS011;35993;52.604;10.078;2023-01-15T07:51:53;5.07;;;1.40;;
50102;SDS011;35993;52.604;10.078;2023-01-15T07:54:19;3.58;;;1.23;;
50102;SDS011;35993;52.604;10.078;2023-01-15T07:56:44;3.22;;;1.40;;
50102;SDS011;35993;52.604;10.078;2023-01-15T07:59:10;4.95;;;1.98;;
50102;SDS011;35993;52.604;10.078;2023-01-15T08:01:36;7.13;;;2.13;;
50102;SDS011;35993;52.604;10.078;2023-01-15T08:04:01;5.22;;;1.67;;
50102;SDS011;35993;52.604;10.078;2023-01-15T08:06:27;5.95;;;1.40;;
50102;SDS011;35993;52.604;10.078;2023-01-15T08:08:53;5.28;;;1.60;;
50102;SDS011;35993;52.604;10.078;2023-01-15T08:11:18;8.65;;;2.05;;
50102;SDS011;35993;52.604;10.078;2023-01-15T08:14:03;9.85;;;1.95;;
50102;SDS011;35993;52.604;10.078;2023-01-15T08:16:47;7.10;;;1.50;;
50102;SDS011;35993;52.604;10.078;2023-01-15T08:19:13;3.95;;;1.48;;
50102;SDS011;35993;52.604;10.078;2023-01-15T08:21:38;5.13;;;1.70;;
50102;SDS011;35993;52.604;10.078;2023-01-15T08:24:04;10.02;;;2.40;;
50102;SDS011;35993;52.604;10.078;2023-01-15T08:26:29;7.32;;;1.95;;
50102;SDS011;35993;52.604;10.078;2023-01-15T08:28:55;3.08;;;1.40;;
50102;SDS011;35993;52.604;10.078;2023-01-15T08:31:20;5.40;;;1.92;;
50102;SDS011;35993;52.604;10.078;2023-01-15T08:33:46;5.80;;;1.60;;
50102;SDS011;35993;52.604;10.078;2023-01-15T08:36:12;7.95;;;1.58;;
50102;SDS011;35993;52.604;10.078;2023-01-15T08:38:37;5.00;;;1.67;;
50102;SDS011;35993;52.604;10.078;2023-01-15T08:41:03;7.32;;;2.60;;
50102;SDS011;35993;52.604;10.078;2023-01-15T08:43:29;5.55;;;2.15;;
50102;SDS011;35993;52.604;10.078;2023-01-15T08:45:58;7.13;;;2.30;;
50102;SDS011;35993;52.604;10.078;2023-01-15T08:48:25;8.05;;;2.95;;
50102;SDS011;35993;52.604;10.078;2023-01-15T08:50:51;7.47;;;2.70;;
50102;SDS011;35993;52.604;10.078;2023-01-15T08:53:17;12.43;;;2.40;;
50102;SDS011;35993;52.604;10.078;2023-01-15T08:55:44;5.60;;;2.67;;
50102;SDS011;35993;52.604;10.078;2023-01-15T08:58:10;6.90;;;1.98;;
50102;SDS011;35993;52.604;10.078;2023-01-15T09:00:36;6.85;;;1.90;;
50102;SDS011;35993;52.604;10.078;2023-01-15T09:03:02;5.43;;;1.70;;
50102;SDS011;35993;52.604;10.078;2023-01-15T09:05:27;4.38;;;2.10;;
50102;SDS011;35993;52.604;10.078;2023-01-15T09:07:53;6.63;;;1.48;;
50102;SDS011;35993;52.604;10.078;2023-01-15T09:10:19;6.18;;;1.70;;
50102;SDS011;35993;52.604;10.078;2023-01-15T09:12:45;3.88;;;1.42;;
50102;SDS011;35993;52.604;10.078;2023-01-15T09:15:11;4.53;;;1.40;;
50102;SDS011;35993;52.604;10.078;2023-01-15T09:17:37;10.13;;;2.00;;
50102;SDS011;35993;52.604;10.078;2023-01-15T09:20:08;8.63;;;1.40;;
50102;SDS011;35993;52.604;10.078;2023-01-15T09:22:35;4.80;;;1.60;;
50102;SDS011;35993;52.604;10.078;2023-01-15T09:25:01;5.40;;;1.65;;
50102;SDS011;35993;52.604;10.078;2023-01-15T09:27:28;6.47;;;1.48;;
50102;SDS011;35993;52.604;10.078;2023-01-15T09:29:54;4.72;;;1.70;;
50102;SDS011;35993;52.604;10.078;2023-01-15T09:32:20;5.10;;;1.50;;
50102;SDS011;35993;52.604;10.078;2023-01-15T09:34:46;6.50;;;1.60;;
50102;SDS011;35993;52.604;10.078;2023-01-15T09:37:11;4.25;;;1.65;;
50102;SDS011;35993;52.604;10.078;2023-01-15T09:39:37;8.63;;;1.60;;
50102;SDS011;35993;52.604;10.078;2023-01-15T09:44:36;7.10;;;1.48;;
50102;SDS011;35993;52.604;10.078;2023-01-15T09:47:17;4.95;;;1.70;;
50102;SDS011;35993;52.604;10.078;2023-01-15T09:50:03;6.07;;;1.50;;
50102;SDS011;35993;52.604;10.078;2023-01-15T09:55:25;4.90;;;1.70;;
50102;SDS011;35993;52.604;10.078;2023-01-15T09:57:53;5.10;;;2.05;;
50102;SDS011;35993;52.604;10.078;2023-01-15T10:00:22;6.90;;;1.60;;
50102;SDS011;35993;52.604;10.078;2023-01-15T10:02:57;7.75;;;1.63;;
50102;SDS011;35993;52.604;10.078;2023-01-15T10:08:15;6.65;;;1.60;;
50102;SDS011;35993;52.604;10.078;2023-01-15T10:10:55;7.00;;;1.60;;
50102;SDS011;35993;52.604;10.078;2023-01-15T10:16:23;7.13;;;1.55;;
50102;SDS011;35993;52.604;10.078;2023-01-15T10:18:51;10.27;;;1.98;;
50102;SDS011;35993;52.604;10.078;2023-01-15T10:21:22;7.68;;;1.40;;
50102;SDS011;35993;52.604;10.078;2023-01-15T10:24:08;3.78;;;1.38;;
50102;SDS011;35993;52.604;10.078;2023-01-15T10:26:50;5.88;;;1.38;;
50102;SDS011;35993;52.604;10.078;2023-01-15T10:32:02;7.15;;;2.70;;
50102;SDS011;35993;52.604;10.078;2023-01-15T10:43:41;10.65;;;3.75;;
50102;SDS011;35993;52.604;10.078;2023-01-15T10:46:13;3.75;;;1.20;;
50102;SDS011;35993;52.604;10.078;2023-01-15T10:49:11;7.43;;;1.98;;
50102;SDS011;35993;52.604;10.078;2023-01-15T10:54:16;4.97;;;1.70;;
50102;SDS011;35993;52.604;10.078;2023-01-15T10:56:51;5.70;;;1.27;;
50102;SDS011;35993;52.604;10.078;2023-01-15T11:05:02;2.97;;;1.30;;
50102;SDS011;35993;52.604;10.078;2023-01-15T11:07:39;6.05;;;1.42;;
50102;SDS011;35993;52.604;10.078;2023-01-15T11:10:08;5.53;;;1.70;;
50102;SDS011;35993;52.604;10.078;2023-01-15T11:12:38;5.00;;;1.42;;
50102;SDS011;35993;52.604;10.078;2023-01-15T11:15:23;6.18;;;1.70;;
50102;SDS011;35993;52.604;10.078;2023-01-15T11:18:12;5.30;;;1.33;;
50102;SDS011;35993;52.604;10.078;2023-01-15T11:21:00;3.67;;;1.20;;
50102;SDS011;35993;52.604;10.078;2023-01-15T11:23:27;5.30;;;1.40;;
50102;SDS011;35993;52.604;10.078;2023-01-15T11:25:58;3.22;;;1.05;;
50102;SDS011;35993;52.604;10.078;2023-01-15T11:28:59;1.65;;;1.20;;
50102;SDS011;35993;52.604;10.078;2023-01-15T11:31:17;6.75;;;1.77;;
50102;SDS011;35993;52.604;10.078;2023-01-15T11:34:05;4.78;;;1.30;;
50102;SDS011;35993;52.604;10.078;2023-01-15T11:36:31;1.83;;;1.13;;
50102;SDS011;35993;52.604;10.078;2023-01-15T11:38:57;3.60;;;1.42;;
50102;SDS011;35993;52.604;10.078;2023-01-15T11:41:30;4.93;;;1.60;;
50102;SDS011;35993;52.604;10.078;2023-01-15T11:44:16;3.15;;;1.23;;
50102;SDS011;35993;52.604;10.078;2023-01-15T11:47:03;7.28;;;1.42;;
50102;SDS011;35993;52.604;10.078;2023-01-15T11:49:54;4.53;;;1.45;;
50102;SDS011;35993;52.604;10.078;2023-01-15T11:52:44;3.65;;;1.10;;
50102;SDS011;35993;52.604;10.078;2023-01-15T11:55:13;2.42;;;1.20;;
50102;SDS011;35993;52.604;10.078;2023-01-15T11:57:42;5.00;;;1.60;;
50102;SDS011;35993;52.604;10.078;2023-01-15T12:00:19;3.65;;;1.52;;
50102;SDS011;35993;52.604;10.078;2023-01-15T12:02:47;5.35;;;1.70;;
50102;SDS011;35993;52.604;10.078;2023-01-15T12:05:16;3.00;;;1.08;;
50102;SDS011;35993;52.604;10.078;2023-01-15T12:07:47;3.75;;;1.40;;
50102;SDS011;35993;52.604;10.078;2023-01-15T12:10:18;3.40;;;1.30;;
50102;SDS011;35993;52.604;10.078;2023-01-15T12:21:02;5.13;;;1.15;;
50102;SDS011;35993;52.604;10.078;2023-01-15T12:26:12;4.03;;;1.02;;
50102;SDS011;35993;52.604;10.078;2023-01-15T12:28:53;2.63;;;1.05;;
50102;SDS011;35993;52.604;10.078;2023-01-15T12:32:21;7.03;;;1.42;;
50102;SDS011;35993;52.604;10.078;2023-01-15T12:37:43;2.33;;;0.90;;
50102;SDS011;35993;52.604;10.078;2023-01-15T12:40:16;3.45;;;1.00;;
50102;SDS011;35993;52.604;10.078;2023-01-15T12:42:47;3.95;;;1.00;;
50102;SDS011;35993;52.604;10.078;2023-01-15T12:45:36;5.40;;;1.10;;
50102;SDS011;35993;52.604;10.078;2023-01-15T12:50:51;3.00;;;1.02;;
50102;SDS011;35993;52.604;10.078;2023-01-15T12:56:20;3.13;;;1.10;;
50102;SDS011;35993;52.604;10.078;2023-01-15T12:58:53;3.30;;;1.23;;
50102;SDS011;35993;52.604;10.078;2023-01-15T13:04:32;2.50;;;1.05;;
50102;SDS011;35993;52.604;10.078;2023-01-15T13:07:10;4.22;;;1.60;;
50102;SDS011;35993;52.604;10.078;2023-01-15T13:09:46;4.50;;;1.38;;
50102;SDS011;35993;52.604;10.078;2023-01-15T13:12:20;4.57;;;0.90;;
50102;SDS011;35993;52.604;10.078;2023-01-15T13:14:46;3.10;;;1.20;;
50102;SDS011;35993;52.604;10.078;2023-01-15T13:23:05;3.40;;;1.30;;
50102;SDS011;35993;52.604;10.078;2023-01-15T13:25:39;7.35;;;1.38;;
50102;SDS011;35993;52.604;10.078;2023-01-15T13:28:25;7.88;;;1.92;;
50102;SDS011;35993;52.604;10.078;2023-01-15T13:34:06;4.00;;;1.75;;
50102;SDS011;35993;52.604;10.078;2023-01-15T13:36:41;6.55;;;1.90;;
50102;SDS011;35993;52.604;10.078;2023-01-15T13:39:18;6.57;;;1.40;;
50102;SDS011;35993;52.604;10.078;2023-01-15T13:41:47;4.70;;;1.67;;
50102;SDS011;35993;52.604;10.078;2023-01-15T13:44:35;4.15;;;1.13;;
50102;SDS011;35993;52.604;10.078;2023-01-15T13:47:09;6.38;;;1.13;;
50102;SDS011;35993;52.604;10.078;2023-01-15T13:49:52;5.38;;;1.05;;
50102;SDS011;35993;52.604;10.078;2023-01-15T13:52:30;3.17;;;1.20;;
50102;SDS011;35993;52.604;10.078;2023-01-15T13:55:00;2.75;;;1.10;;
50102;SDS011;35993;52.604;10.078;2023-01-15T13:57:38;2.50;;;1.20;;
50102;SDS011;35993;52.604;10.078;2023-01-15T14:00:26;6.85;;;1.67;;
50102;SDS011;35993;52.604;10.078;2023-01-15T14:02:57;4.75;;;1.45;;
50102;SDS011;35993;52.604;10.078;2023-01-15T14:07:53;5.22;;;1.00;;
50102;SDS011;35993;52.604;10.078;2023-01-15T14:18:37;4.45;;;1.20;;
50102;SDS011;35993;52.604;10.078;2023-01-15T14:26:41;4.85;;;1.20;;
50102;SDS011;35993;52.604;10.078;2023-01-15T14:35:00;5.70;;;1.38;;
50102;SDS011;35993;52.604;10.078;2023-01-15T14:38:02;5.28;;;1.42;;
50102;SDS011;35993;52.604;10.078;2023-01-15T14:40:27;4.78;;;1.10;;
50102;SDS011;35993;52.604;10.078;2023-01-15T14:42:55;5.88;;;1.30;;
50102;SDS011;35993;52.604;10.078;2023-01-15T14:48:04;3.63;;;1.20;;
50102;SDS011;35993;52.604;10.078;2023-01-15T14:50:40;6.90;;;1.27;;
50102;SDS011;35993;52.604;10.078;2023-01-15T15:00:54;3.38;;;1.00;;
50102;SDS011;35993;52.604;10.078;2023-01-15T15:04:02;2.53;;;1.15;;
50102;SDS011;35993;52.604;10.078;2023-01-15T15:06:24;6.78;;;1.73;;
50102;SDS011;35993;52.604;10.078;2023-01-15T15:08:53;3.60;;;1.20;;
50102;SDS011;35993;52.604;10.078;2023-01-15T15:11:28;6.63;;;1.33;;
50102;SDS011;35993;52.604;10.078;2023-01-15T15:14:18;6.07;;;1.20;;
50102;SDS011;35993;52.604;10.078;2023-01-15T15:16:46;7.07;;;1.58;;
50102;SDS011;35993;52.604;10.078;2023-01-15T15:19:28;5.50;;;1.33;;
50102;SDS011;35993;52.604;10.078;2023-01-15T15:22:02;6.85;;;1.38;;
50102;SDS011;35993;52.604;10.078;2023-01-15T15:24:31;3.55;;;1.13;;
50102;SDS011;35993;52.604;10.078;2023-01-15T15:27:18;8.38;;;1.40;;
50102;SDS011;35993;52.604;10.078;2023-01-15T15:29:46;4.45;;;1.52;;
50102;SDS011;35993;52.604;10.078;2023-01-15T15:32:16;4.88;;;1.33;;
50102;SDS011;35993;52.604;10.078;2023-01-15T15:34:45;5.85;;;1.33;;
50102;SDS011;35993;52.604;10.078;2023-01-15T15:42:24;3.53;;;0.88;;
50102;SDS011;35993;52.604;10.078;2023-01-15T15:45:19;4.03;;;1.13;;
50102;SDS011;35993;52.604;10.078;2023-01-15T15:48:12;3.88;;;1.00;;
50102;SDS011;35993;52.604;10.078;2023-01-15T15:51:03;3.28;;;1.00;;
50102;SDS011;35993;52.604;10.078;2023-01-15T15:53:29;2.33;;;1.02;;
50102;SDS011;35993;52.604;10.078;2023-01-15T15:55:56;5.00;;;1.13;;
50102;SDS011;35993;52.604;10.078;2023-01-15T15:58:25;2.28;;;0.60;;
50102;SDS011;35993;52.604;10.078;2023-01-15T16:01:00;4.45;;;1.00;;
50102;SDS011;35993;52.604;10.078;2023-01-15T16:03:27;3.38;;;1.00;;
50102;SDS011;35993;52.604;10.078;2023-01-15T16:08:20;3.20;;;1.00;;
50102;SDS011;35993;52.604;10.078;2023-01-15T16:10:46;3.95;;;1.08;;
50102;SDS011;35993;52.604;10.078;2023-01-15T16:13:20;2.92;;;1.20;;
50102;SDS011;35993;52.604;10.078;2023-01-15T16:15:49;3.38;;;1.23;;
50102;SDS011;35993;52.604;10.078;2023-01-15T16:18:29;1.70;;;1.00;;
50102;SDS011;35993;52.604;10.078;2023-01-15T16:20:57;5.78;;;1.35;;
50102;SDS011;35993;52.604;10.078;2023-01-15T16:23:24;2.42;;;1.05;;
50102;SDS011;35993;52.604;10.078;2023-01-15T16:28:28;3.30;;;1.08;;
50102;SDS011;35993;52.604;10.078;2023-01-15T16:31:02;3.47;;;1.00;;
50102;SDS011;35993;52.604;10.078;2023-01-15T16:33:28;3.17;;;0.93;;
50102;SDS011;35993;52.604;10.078;2023-01-15T16:35:55;2.25;;;0.95;;
50102;SDS011;35993;52.604;10.078;2023-01-15T16:38:22;2.45;;;0.88;;
50102;SDS011;35993;52.604;10.078;2023-01-15T16:40:48;5.28;;;1.00;;
50102;SDS011;35993;52.604;10.078;2023-01-15T16:43:18;2.80;;;1.00;;
50102;SDS011;35993;52.604;10.078;2023-01-15T16:50:47;3.00;;;1.05;;
50102;SDS011;35993;52.604;10.078;2023-01-15T16:56:00;3.80;;;1.05;;
50102;SDS011;35993;52.604;10.078;2023-01-15T16:58:35;4.10;;;1.08;;
50102;SDS011;35993;52.604;10.078;2023-01-15T17:03:47;4.50;;;1.35;;
50102;SDS011;35993;52.604;10.078;2023-01-15T17:06:12;2.85;;;1.05;;
50102;SDS011;35993;52.604;10.078;2023-01-15T17:08:42;5.50;;;1.23;;
50102;SDS011;35993;52.604;10.078;2023-01-15T17:11:25;7.95;;;2.80;;
50102;SDS011;35993;52.604;10.078;2023-01-15T17:14:10;4.65;;;1.05;;
50102;SDS011;35993;52.604;10.078;2023-01-15T17:16:45;3.95;;;1.65;;